createdAt,value
2018-07-07T00:00:19.692Z,80.50
2018-07-07T00:02:48.029Z,80.50
2018-07-07T00:05:16.557Z,80.60
2018-07-07T00:07:44.881Z,80.80
2018-07-07T00:10:14.175Z,81.00
2018-07-07T00:12:43.005Z,81.80
2018-07-07T00:15:18.269Z,81.20
2018-07-07T00:17:47.053Z,81.20
2018-07-07T00:20:15.969Z,81.40
2018-07-07T00:22:44.396Z,81.50
2018-07-07T00:25:15.986Z,81.70
2018-07-07T00:27:45.288Z,81.90
2018-07-07T00:30:13.759Z,81.90
2018-07-07T00:32:42.143Z,82.10
2018-07-07T00:35:10.625Z,82.20
2018-07-07T00:37:39.049Z,82.20
2018-07-07T00:40:08.261Z,82.30
2018-07-07T00:42:36.913Z,82.40
2018-07-07T00:45:05.291Z,82.50
2018-07-07T00:47:33.693Z,82.60
2018-07-07T00:50:02.151Z,82.70
2018-07-07T00:52:30.658Z,82.70
2018-07-07T00:54:59.033Z,82.70
2018-07-07T00:57:27.435Z,82.90
2018-07-07T00:59:55.797Z,83.10
2018-07-07T01:02:24.710Z,83.30
2018-07-07T01:04:54.315Z,83.50
2018-07-07T01:07:23.337Z,83.30
2018-07-07T01:09:51.720Z,83.60
2018-07-07T01:12:20.092Z,83.80
2018-07-07T01:14:48.987Z,83.80
2018-07-07T01:17:17.458Z,83.90
2018-07-07T01:19:45.902Z,84.00
2018-07-07T01:22:14.687Z,84.10
2018-07-07T01:24:43.508Z,84.20
2018-07-07T01:27:11.913Z,84.30
2018-07-07T01:29:41.309Z,84.40
2018-07-07T01:32:09.861Z,84.50
2018-07-07T01:34:38.239Z,84.50
2018-07-07T01:37:06.945Z,84.60
2018-07-07T01:39:35.256Z,84.70
2018-07-07T01:42:03.609Z,84.70
2018-07-07T01:44:31.993Z,84.90
2018-07-07T01:47:00.322Z,84.90
2018-07-07T01:49:28.650Z,84.90
2018-07-07T01:51:57.041Z,85.10
2018-07-07T01:54:25.446Z,85.20
2018-07-07T01:56:53.935Z,85.30
2018-07-07T01:59:22.286Z,85.50
2018-07-07T02:01:50.749Z,85.60
2018-07-07T02:04:19.926Z,85.60
2018-07-07T02:06:48.321Z,85.70
2018-07-07T02:09:16.633Z,85.80
2018-07-07T02:11:44.981Z,85.90
2018-07-07T02:14:13.529Z,86.00
2018-07-07T02:16:41.945Z,86.20
2018-07-07T02:19:10.284Z,86.40
2018-07-07T02:21:38.734Z,86.40
2018-07-07T02:24:07.198Z,86.50
2018-07-07T02:26:35.560Z,86.50
2018-07-07T02:29:03.985Z,86.60
2018-07-07T02:31:32.363Z,86.90
2018-07-07T02:34:00.786Z,87.00
2018-07-07T02:36:29.135Z,87.10
2018-07-07T02:38:57.505Z,87.20
2018-07-07T02:41:25.858Z,87.20
2018-07-07T02:43:54.234Z,87.40
2018-07-07T02:46:22.701Z,87.40
2018-07-07T02:48:51.025Z,87.50
2018-07-07T02:51:19.372Z,87.50
2018-07-07T02:53:47.734Z,87.40
2018-07-07T03:01:12.097Z,87.60
2018-07-07T03:03:40.369Z,87.60
2018-07-07T03:06:08.674Z,87.60
2018-07-07T03:08:36.992Z,87.60
2018-07-07T03:11:05.285Z,87.60
2018-07-07T03:13:33.615Z,87.60
2018-07-07T03:16:01.911Z,87.60
2018-07-07T03:18:30.142Z,87.70
2018-07-07T03:20:58.509Z,87.50
2018-07-07T03:23:26.754Z,87.50
2018-07-07T03:25:55.074Z,87.50
2018-07-07T03:28:23.325Z,87.50
2018-07-07T03:30:51.665Z,87.40
2018-07-07T03:35:47.945Z,87.20
2018-07-07T03:38:16.205Z,87.20
2018-07-07T03:40:44.516Z,87.20
2018-07-07T03:43:12.788Z,87.10
2018-07-07T03:45:41.019Z,87.00
2018-07-07T03:48:09.333Z,87.00
2018-07-07T03:50:37.673Z,86.90
2018-07-07T03:55:33.974Z,86.70
2018-07-07T03:58:02.252Z,86.70
2018-07-07T04:00:30.501Z,86.60
2018-07-07T04:02:58.746Z,86.50
2018-07-07T04:05:27.007Z,86.50
2018-07-07T04:07:55.266Z,86.40
2018-07-07T04:10:23.565Z,86.50
2018-07-07T04:12:51.862Z,86.40
2018-07-07T04:15:20.121Z,86.40
2018-07-07T04:17:48.474Z,86.30
2018-07-07T04:20:16.742Z,86.30
2018-07-07T04:22:45.014Z,86.30
2018-07-07T04:25:13.294Z,86.20
2018-07-07T04:27:41.958Z,86.10
2018-07-07T04:30:10.225Z,86.00
2018-07-07T04:32:38.547Z,85.90
2018-07-07T04:35:06.794Z,85.80
2018-07-07T04:37:35.098Z,85.60
2018-07-07T04:40:03.347Z,85.60
2018-07-07T04:42:31.704Z,85.50
2018-07-07T04:45:00.030Z,85.40
2018-07-07T04:47:28.309Z,85.30
2018-07-07T04:49:56.645Z,85.10
2018-07-07T04:52:25.003Z,85.10
2018-07-07T04:54:53.209Z,85.10
2018-07-07T04:57:22.318Z,85.00
2018-07-07T04:59:50.821Z,85.00
2018-07-07T05:02:19.246Z,84.80
2018-07-07T05:04:47.534Z,84.70
2018-07-07T05:07:15.781Z,84.70
2018-07-07T05:09:44.073Z,84.60
2018-07-07T05:12:12.370Z,84.60
2018-07-07T05:14:40.609Z,84.40
2018-07-07T05:17:08.902Z,84.10
2018-07-07T05:19:37.154Z,83.60
2018-07-07T05:22:05.430Z,83.60
2018-07-07T05:24:33.806Z,83.60
2018-07-07T05:27:02.104Z,83.40
2018-07-07T05:29:30.567Z,83.30
2018-07-07T05:31:58.906Z,83.10
2018-07-07T05:34:27.138Z,82.80
2018-07-07T05:36:55.434Z,82.60
2018-07-07T05:39:23.839Z,82.50
2018-07-07T05:41:52.218Z,82.10
2018-07-07T05:44:20.509Z,81.70
2018-07-07T05:46:48.926Z,81.60
2018-07-07T05:49:17.257Z,81.50
2018-07-07T05:51:45.605Z,80.80
2018-07-07T05:54:13.826Z,80.50
2018-07-07T05:59:10.066Z,80.30
2018-07-07T06:01:38.339Z,80.10
2018-07-07T06:04:06.582Z,79.70
2018-07-07T06:06:34.858Z,79.60
2018-07-07T06:09:03.212Z,79.50
2018-07-07T06:11:31.461Z,79.30
2018-07-07T06:13:59.732Z,79.00
2018-07-07T06:16:27.933Z,78.40
2018-07-07T06:18:56.185Z,77.90
2018-07-07T06:21:24.490Z,77.60
2018-07-07T06:23:52.763Z,76.80
2018-07-07T06:26:21.340Z,76.60
2018-07-07T06:28:49.741Z,76.00
2018-07-07T06:31:18.006Z,75.70
2018-07-07T06:33:46.243Z,75.40
2018-07-07T06:36:14.610Z,75.00
2018-07-07T06:38:42.937Z,74.60
2018-07-07T06:41:11.266Z,74.30
2018-07-07T06:43:39.550Z,73.70
2018-07-07T06:46:08.278Z,73.20
2018-07-07T06:48:36.549Z,72.80
2018-07-07T06:51:04.817Z,72.50
2018-07-07T06:53:33.087Z,72.10
2018-07-07T06:56:01.374Z,71.70
2018-07-07T06:58:29.789Z,71.10
2018-07-07T07:00:58.051Z,71.20
2018-07-07T07:03:26.565Z,70.40
2018-07-07T07:05:54.797Z,70.10
2018-07-07T07:08:23.050Z,70.20
2018-07-07T07:10:51.405Z,70.00
2018-07-07T07:13:19.798Z,70.00
2018-07-07T07:15:48.042Z,69.20
2018-07-07T07:18:16.641Z,68.70
2018-07-07T07:20:44.923Z,68.40
2018-07-07T07:23:13.243Z,67.70
2018-07-07T07:25:41.549Z,67.50
2018-07-07T07:28:09.801Z,68.10
2018-07-07T07:30:38.037Z,67.00
2018-07-07T07:33:06.642Z,67.10
2018-07-07T07:35:34.902Z,66.90
2018-07-07T07:38:03.277Z,65.80
2018-07-07T07:40:32.077Z,65.40
2018-07-07T07:43:00.382Z,65.10
2018-07-07T07:45:28.665Z,64.40
2018-07-07T07:47:56.922Z,64.20
2018-07-07T07:50:25.261Z,64.40
2018-07-07T07:52:53.498Z,63.50
2018-07-07T07:55:21.786Z,63.00
2018-07-07T07:57:50.045Z,62.70
2018-07-07T08:00:18.337Z,62.10
2018-07-07T08:02:46.594Z,62.00
2018-07-07T08:05:14.901Z,61.90
2018-07-07T08:07:43.182Z,61.70
2018-07-07T08:10:11.431Z,61.00
2018-07-07T08:12:39.698Z,60.00
2018-07-07T08:15:07.964Z,59.90
2018-07-07T08:17:36.406Z,59.60
2018-07-07T08:20:04.942Z,59.10
2018-07-07T08:22:33.245Z,58.50
2018-07-07T08:25:01.489Z,58.60
2018-07-07T08:27:29.882Z,58.90
2018-07-07T08:29:58.201Z,58.10
2018-07-07T08:32:26.450Z,58.30
2018-07-07T08:34:54.858Z,58.40
2018-07-07T08:37:23.149Z,57.60
2018-07-07T08:39:51.402Z,57.10
2018-07-07T08:42:19.640Z,56.80
2018-07-07T08:44:47.911Z,56.10
2018-07-07T08:47:16.152Z,55.60
2018-07-07T08:49:44.428Z,55.70
2018-07-07T08:52:13.011Z,54.10
2018-07-07T08:54:41.246Z,53.70
2018-07-07T08:57:09.564Z,53.30
2018-07-07T08:59:37.803Z,52.60
2018-07-07T09:02:06.060Z,51.80
2018-07-07T09:04:34.583Z,50.40
2018-07-07T09:07:02.848Z,50.20
2018-07-07T09:09:31.106Z,50.10
2018-07-07T09:11:59.345Z,49.50
2018-07-07T09:14:28.183Z,48.30
2018-07-07T09:16:56.449Z,48.30
2018-07-07T09:19:24.856Z,47.10
2018-07-07T09:21:53.190Z,46.50
2018-07-07T09:24:21.665Z,46.10
2018-07-07T09:26:50.116Z,45.90
2018-07-07T09:29:18.530Z,46.00
2018-07-07T09:31:47.071Z,45.90
2018-07-07T09:34:15.443Z,45.40
2018-07-07T09:36:43.770Z,44.40
2018-07-07T09:39:12.114Z,43.90
2018-07-07T09:41:40.578Z,43.00
2018-07-07T09:44:08.876Z,43.10
2018-07-07T09:46:37.205Z,42.60
2018-07-07T09:49:05.492Z,42.90
2018-07-07T09:54:01.702Z,42.80
2018-07-07T09:56:30.035Z,43.00
2018-07-07T09:58:58.319Z,43.30
2018-07-07T10:01:26.635Z,42.70
2018-07-07T10:03:54.916Z,42.40
2018-07-07T10:06:23.160Z,42.60
2018-07-07T10:08:52.398Z,42.90
2018-07-07T10:11:20.722Z,43.10
2018-07-07T10:13:49.000Z,43.30
2018-07-07T10:16:17.314Z,43.10
2018-07-07T10:18:45.584Z,43.10
2018-07-07T10:21:13.869Z,42.50
2018-07-07T10:23:42.325Z,43.40
2018-07-07T10:26:10.907Z,44.10
2018-07-07T10:28:42.681Z,44.30
2018-07-07T10:31:11.233Z,44.20
2018-07-07T10:33:39.506Z,43.90
2018-07-07T10:36:08.416Z,44.00
2018-07-07T10:38:36.930Z,43.80
2018-07-07T10:41:05.214Z,44.30
2018-07-07T10:43:33.494Z,44.20
2018-07-07T10:46:01.814Z,44.20
2018-07-07T10:48:30.105Z,44.40
2018-07-07T10:50:58.534Z,44.20
2018-07-07T10:53:26.862Z,43.80
2018-07-07T10:55:55.173Z,43.60
2018-07-07T10:58:23.505Z,43.40
2018-07-07T11:00:51.978Z,43.10
2018-07-07T11:03:20.282Z,42.80
2018-07-07T11:05:48.594Z,42.60
2018-07-07T11:08:16.909Z,41.90
2018-07-07T11:10:45.191Z,41.30
2018-07-07T11:13:13.520Z,41.10
2018-07-07T11:15:41.799Z,40.80
2018-07-07T11:18:10.070Z,40.70
2018-07-07T11:20:38.444Z,40.80
2018-07-07T11:23:06.710Z,40.50
2018-07-07T11:25:34.962Z,40.10
2018-07-07T11:28:03.430Z,39.40
2018-07-07T11:30:31.723Z,38.70
2018-07-07T11:32:59.994Z,38.30
2018-07-07T11:35:28.235Z,37.30
2018-07-07T11:37:56.538Z,37.00
2018-07-07T11:40:24.830Z,37.20
2018-07-07T11:42:53.177Z,37.30
2018-07-07T11:45:21.464Z,36.80
2018-07-07T11:47:50.545Z,36.00
2018-07-07T11:50:18.884Z,35.90
2018-07-07T11:52:47.136Z,35.70
2018-07-07T11:55:15.434Z,35.70
2018-07-07T11:57:43.698Z,35.10
2018-07-07T12:00:12.058Z,35.20
2018-07-07T12:02:40.377Z,35.30
2018-07-07T12:05:08.705Z,35.00
2018-07-07T12:07:37.092Z,34.70
2018-07-07T12:10:05.551Z,34.40
2018-07-07T12:12:33.838Z,33.80
2018-07-07T12:15:02.130Z,33.50
2018-07-07T12:17:30.498Z,33.30
2018-07-07T12:19:58.737Z,33.30
2018-07-07T12:22:27.158Z,33.40
2018-07-07T12:24:55.502Z,34.10
2018-07-07T12:27:23.934Z,33.30
2018-07-07T12:29:52.320Z,33.10
2018-07-07T12:32:20.639Z,32.80
2018-07-07T12:34:48.963Z,32.70
2018-07-07T12:37:17.337Z,32.50
2018-07-07T12:39:45.613Z,32.10
2018-07-07T12:42:13.906Z,32.10
2018-07-07T12:44:42.258Z,32.30
2018-07-07T12:47:10.587Z,32.30
2018-07-07T12:49:38.826Z,32.40
2018-07-07T12:52:07.203Z,31.80
2018-07-07T12:54:35.502Z,31.60
2018-07-07T12:57:03.808Z,31.40
2018-07-07T12:59:32.367Z,31.20
2018-07-07T13:02:00.642Z,30.70
2018-07-07T13:04:29.020Z,30.80
2018-07-07T13:06:57.257Z,31.10
2018-07-07T13:09:25.572Z,31.20
2018-07-07T13:11:54.070Z,31.60
2018-07-07T13:14:22.329Z,31.40
2018-07-07T13:16:50.688Z,31.20
2018-07-07T13:19:19.102Z,31.10
2018-07-07T13:21:47.367Z,31.00
2018-07-07T13:24:15.637Z,30.80
2018-07-07T13:26:43.926Z,31.00
2018-07-07T13:29:12.189Z,30.90
2018-07-07T13:31:40.479Z,30.90
2018-07-07T13:34:08.722Z,30.90
2018-07-07T13:36:36.963Z,31.30
2018-07-07T13:39:06.507Z,31.40
2018-07-07T13:41:34.807Z,31.50
2018-07-07T13:44:03.101Z,31.60
2018-07-07T13:46:31.338Z,31.50
2018-07-07T13:48:59.661Z,31.40
2018-07-07T13:51:27.926Z,31.40
2018-07-07T13:53:56.282Z,31.40
2018-07-07T13:56:24.535Z,31.40
2018-07-07T13:58:55.885Z,31.30
2018-07-07T14:01:24.127Z,31.50
2018-07-07T14:03:52.388Z,31.80
2018-07-07T14:06:20.943Z,31.80
2018-07-07T14:08:49.190Z,31.80
2018-07-07T14:11:17.439Z,31.60
2018-07-07T14:13:45.729Z,31.60
2018-07-07T14:16:13.987Z,31.50
2018-07-07T14:18:42.345Z,31.50
2018-07-07T14:21:10.678Z,31.50
2018-07-07T14:23:38.988Z,31.40
2018-07-07T14:26:07.251Z,31.50
2018-07-07T14:28:35.517Z,31.50
2018-07-07T14:31:03.886Z,31.80
2018-07-07T14:33:32.142Z,31.80
2018-07-07T14:36:00.435Z,32.00
2018-07-07T14:38:33.029Z,32.20
2018-07-07T14:41:15.698Z,32.20
2018-07-07T14:43:57.847Z,32.20
2018-07-07T14:46:26.646Z,32.20
2018-07-07T14:48:54.946Z,32.60
2018-07-07T14:51:23.225Z,33.00
2018-07-07T14:53:51.501Z,33.70
2018-07-07T14:56:20.770Z,34.10
2018-07-07T14:58:49.607Z,34.10
2018-07-07T15:01:17.886Z,34.10
2018-07-07T15:03:46.144Z,34.20
2018-07-07T15:06:14.418Z,34.30
2018-07-07T15:08:42.702Z,34.90
2018-07-07T15:11:11.381Z,36.00
2018-07-07T15:13:39.878Z,37.00
2018-07-07T15:16:08.170Z,38.20
2018-07-07T15:21:05.051Z,40.60
2018-07-07T15:23:33.367Z,41.30
2018-07-07T15:26:02.232Z,42.30
2018-07-07T15:28:30.547Z,42.90
2018-07-07T15:30:58.822Z,43.60
2018-07-07T15:33:27.151Z,44.20
2018-07-07T15:35:55.434Z,45.00
2018-07-07T15:38:23.714Z,45.40
2018-07-07T15:40:52.158Z,45.90
2018-07-07T15:45:48.601Z,46.80
2018-07-07T15:48:16.912Z,46.90
2018-07-07T15:50:45.195Z,47.30
2018-07-07T15:53:13.519Z,47.70
2018-07-07T15:55:41.758Z,48.00
2018-07-07T15:58:10.427Z,49.40
2018-07-07T16:00:38.722Z,50.20
2018-07-07T16:03:07.241Z,50.30
2018-07-07T16:05:35.529Z,50.70
2018-07-07T16:10:31.773Z,51.50
2018-07-07T16:13:00.107Z,52.10
2018-07-07T16:15:28.395Z,52.70
2018-07-07T16:17:56.674Z,52.40
2018-07-07T16:20:25.040Z,52.50
2018-07-07T16:22:53.406Z,52.60
2018-07-07T16:25:22.775Z,52.70
2018-07-07T16:27:51.000Z,52.80
2018-07-07T16:30:19.305Z,53.20
2018-07-07T16:32:47.584Z,53.40
2018-07-07T16:37:45.107Z,53.80
2018-07-07T16:40:13.379Z,54.00
2018-07-07T16:42:42.683Z,54.20
2018-07-07T16:45:11.110Z,54.30
2018-07-07T16:47:39.408Z,54.50
2018-07-07T16:50:08.198Z,54.40
2018-07-07T16:52:36.681Z,54.40
2018-07-07T16:55:04.938Z,54.70
2018-07-07T16:57:33.310Z,55.00
2018-07-07T17:00:01.711Z,55.00
2018-07-07T17:02:30.090Z,55.30
2018-07-07T17:04:58.402Z,55.70
2018-07-07T17:07:26.682Z,55.80
2018-07-07T17:09:55.021Z,56.20
2018-07-07T17:12:23.311Z,56.20
2018-07-07T17:19:48.114Z,56.60
2018-07-07T17:22:16.461Z,57.00
2018-07-07T17:24:44.815Z,57.10
2018-07-07T17:27:13.326Z,57.20
2018-07-07T17:29:41.778Z,57.30
2018-07-07T17:32:10.264Z,57.50
2018-07-07T17:34:38.540Z,57.80
2018-07-07T17:37:06.831Z,57.80
2018-07-07T17:39:35.553Z,58.00
2018-07-07T17:42:03.860Z,58.30
2018-07-07T17:44:32.206Z,58.70
2018-07-07T17:47:00.505Z,58.90
2018-07-07T17:49:28.839Z,59.60
2018-07-07T17:51:58.931Z,59.10
2018-07-07T17:54:27.262Z,59.30
2018-07-07T17:56:55.713Z,59.40
2018-07-07T17:59:24.024Z,59.80
2018-07-07T18:01:53.162Z,60.90
2018-07-07T18:04:21.690Z,60.00
2018-07-07T18:06:49.945Z,60.10
2018-07-07T18:09:18.201Z,60.30
2018-07-07T18:11:46.566Z,60.60
2018-07-07T18:14:14.839Z,60.80
2018-07-07T18:16:43.366Z,61.10
2018-07-07T18:19:11.719Z,61.30
2018-07-07T18:21:40.134Z,61.50
2018-07-07T18:24:08.455Z,61.70
2018-07-07T18:26:36.710Z,61.70
2018-07-07T18:29:05.200Z,62.00
2018-07-07T18:31:33.510Z,62.10
2018-07-07T18:34:01.863Z,62.50
2018-07-07T18:36:30.207Z,62.50
2018-07-07T18:38:58.568Z,62.80
2018-07-07T18:41:27.339Z,62.90
2018-07-07T18:43:55.691Z,63.30
2018-07-07T18:46:23.949Z,63.40
2018-07-07T18:48:52.232Z,63.50
2018-07-07T18:51:20.505Z,63.80
2018-07-07T18:53:48.778Z,64.00
2018-07-07T18:56:17.144Z,64.30
2018-07-07T18:58:45.422Z,64.40
2018-07-07T19:01:13.730Z,64.40
2018-07-07T19:03:42.081Z,64.70
2018-07-07T19:06:10.362Z,65.00
2018-07-07T19:08:38.786Z,65.00
2018-07-07T19:11:07.081Z,65.30
2018-07-07T19:13:35.357Z,65.30
2018-07-07T19:16:03.787Z,65.40
2018-07-07T19:18:32.799Z,65.70
2018-07-07T19:21:06.371Z,65.70
2018-07-07T19:23:40.050Z,66.00
2018-07-07T19:26:13.681Z,66.10
2018-07-07T19:28:41.976Z,66.40
2018-07-07T19:31:10.277Z,66.50
2018-07-07T19:33:43.984Z,66.90
2018-07-07T19:36:17.942Z,67.10
2018-07-07T19:38:46.314Z,67.30
2018-07-07T19:41:14.561Z,67.60
2018-07-07T19:43:42.830Z,67.90
2018-07-07T19:46:11.121Z,68.00
2018-07-07T19:48:39.369Z,68.20
2018-07-07T19:51:07.698Z,68.40
2018-07-07T19:53:36.247Z,68.60
2018-07-07T19:56:04.447Z,68.80
2018-07-07T19:58:32.760Z,69.00
2018-07-07T20:01:01.067Z,69.10
2018-07-07T20:03:29.357Z,69.10
2018-07-07T20:05:57.634Z,69.20
2018-07-07T20:08:25.955Z,69.20
2018-07-07T20:10:54.234Z,69.40
2018-07-07T20:13:22.574Z,69.60
2018-07-07T20:16:16.799Z,69.70
2018-07-07T20:19:11.514Z,69.80
2018-07-07T20:21:48.493Z,69.90
2018-07-07T20:24:18.262Z,70.10
2018-07-07T20:26:51.850Z,70.40
2018-07-07T20:29:20.137Z,70.50
2018-07-07T20:31:49.334Z,70.90
2018-07-07T20:34:19.662Z,70.80
2018-07-07T20:36:47.934Z,71.20
2018-07-07T20:39:16.250Z,71.20
2018-07-07T20:41:44.550Z,71.50
2018-07-07T20:44:13.069Z,71.70
2018-07-07T20:46:41.345Z,71.60
2018-07-07T20:49:09.634Z,71.90
2018-07-07T20:51:38.205Z,72.20
2018-07-07T20:54:06.774Z,72.20
2018-07-07T20:56:35.014Z,72.40
2018-07-07T20:59:03.301Z,72.60
2018-07-07T21:01:31.594Z,72.70
2018-07-07T21:04:00.078Z,72.90
2018-07-07T21:06:29.161Z,73.00
2018-07-07T21:08:57.526Z,73.10
2018-07-07T21:11:26.164Z,73.20
2018-07-07T21:13:54.385Z,73.50
2018-07-07T21:16:22.675Z,73.60
2018-07-07T21:21:18.978Z,74.00
2018-07-07T21:23:47.307Z,74.10
2018-07-07T21:26:15.522Z,74.30
2018-07-07T21:28:43.802Z,74.40
2018-07-07T21:31:12.059Z,74.50
2018-07-07T21:33:40.342Z,74.90
2018-07-07T21:36:08.686Z,74.90
2018-07-07T21:38:36.941Z,75.10
2018-07-07T21:41:05.217Z,75.20
2018-07-07T21:43:33.526Z,75.40
2018-07-07T21:46:01.847Z,75.60
2018-07-07T21:48:30.135Z,75.60
2018-07-07T21:50:58.446Z,75.90
2018-07-07T21:53:26.726Z,76.00
2018-07-07T21:55:54.973Z,76.10
2018-07-07T21:58:26.975Z,76.20
2018-07-07T22:01:11.815Z,76.40
2018-07-07T22:03:46.199Z,76.50
2018-07-07T22:06:19.750Z,76.40
2018-07-07T22:08:48.082Z,76.70
2018-07-07T22:11:16.426Z,76.90
2018-07-07T22:13:44.734Z,77.00
2018-07-07T22:16:13.005Z,77.40
2018-07-07T22:18:41.259Z,77.60
2018-07-07T22:21:20.977Z,77.60
2018-07-07T22:23:49.249Z,77.70
2018-07-07T22:26:17.528Z,77.60
2018-07-07T22:28:45.761Z,77.90
2018-07-07T22:31:14.038Z,78.20
2018-07-07T22:33:42.374Z,78.30
2018-07-07T22:36:16.079Z,78.40
2018-07-07T22:38:49.755Z,78.50
2018-07-07T22:41:17.994Z,78.50
2018-07-07T22:43:46.270Z,78.60
2018-07-07T22:46:14.569Z,78.80
2018-07-07T22:48:42.848Z,78.90
2018-07-07T22:51:11.087Z,79.00
2018-07-07T22:53:39.353Z,79.10
2018-07-07T22:56:07.619Z,79.00
2018-07-07T22:58:35.850Z,79.30
2018-07-07T23:03:32.098Z,79.40
2018-07-07T23:06:00.413Z,79.70
2018-07-07T23:08:28.711Z,79.70
2018-07-07T23:10:56.994Z,79.80
2018-07-07T23:13:25.281Z,79.90
2018-07-07T23:15:53.571Z,80.00
2018-07-07T23:18:21.842Z,80.10
2018-07-07T23:20:50.269Z,80.10
2018-07-07T23:23:18.519Z,80.90
2018-07-07T23:25:46.818Z,80.20
2018-07-07T23:28:15.103Z,80.30
2018-07-07T23:30:43.386Z,80.40
2018-07-07T23:33:11.726Z,80.40
2018-07-07T23:35:39.989Z,80.40
2018-07-07T23:38:08.390Z,80.50
2018-07-07T23:43:04.674Z,80.80
2018-07-07T23:45:32.930Z,80.80
2018-07-07T23:48:01.166Z,81.00
2018-07-07T23:50:29.406Z,81.00
2018-07-07T23:52:57.630Z,81.00
2018-07-07T23:55:25.905Z,81.30
2018-07-07T23:57:54.159Z,81.40
